KTDF

Person County Airport

Roxboro, North Carolina, USA
METAR KTDF 141155Z AUTO 02003KT 10SM DZ BKN060 BKN075 OVC100 03/01 A3038 RMK AO2
Observed Flight Rules
Dec-14 @ 11:55 UTC (25 minutes ago) Visual Flight Rules
Wind Visibility Clouds Conditions
20° at 3 knots 10 miles
  • Broken at 6,000' AGL
  • Broken at 7,500' AGL
  • Overcast at 10,000' AGL
  • Drizzle
Temperatures Readings
Current 3°C / 37°F
Dewpoint 1°C / 34°F
Humidity 87%
Altimeter 30.38" Hg
Pressure 1029 hPa
Elevation 186
METAR KTDF 141155Z AUTO 02003KT 10SM DZ BKN060 BKN075 OVC100 03/01 A3038 RMK AO2
Observed Flight Rules
Dec-14 @ 11:55 UTC
(25 minutes ago)
VFR
Wind Visibility
20° at 3 knots 10 miles
Clouds
  • Broken at 6,000' AGL
  • Broken at 7,500' AGL
  • Overcast at 10,000' AGL
Conditions
  • Drizzle
Temperature Dewpoint
3°C / 37°F 1°C / 34°F
Humidity Altimeter Pressure
87% 30.38" Hg 1029 hPa